createdAt,value
2017-12-12T00:00:42.674Z,15.33
2017-12-12T00:01:52.744Z,15.27
2017-12-12T00:03:02.878Z,15.35
2017-12-12T00:04:12.829Z,15.44
2017-12-12T00:05:23.482Z,15.43
2017-12-12T00:06:33.562Z,15.47
2017-12-12T00:07:43.637Z,15.49
2017-12-12T00:08:53.699Z,15.58
2017-12-12T00:10:03.246Z,15.52
2017-12-12T00:11:13.391Z,15.45
2017-12-12T00:12:23.205Z,15.55
2017-12-12T00:13:33.298Z,15.49
2017-12-12T00:14:43.366Z,15.45
2017-12-12T00:15:53.442Z,15.44
2017-12-12T00:17:03.239Z,15.41
2017-12-12T00:18:12.849Z,15.52
2017-12-12T00:19:22.747Z,15.53
2017-12-12T00:20:32.918Z,15.53
2017-12-12T00:21:42.478Z,15.53
2017-12-12T00:22:52.567Z,15.62
2017-12-12T00:24:02.375Z,15.62
2017-12-12T00:25:12.492Z,15.55
2017-12-12T00:26:22.570Z,15.6
2017-12-12T00:27:32.366Z,15.58
2017-12-12T00:28:41.654Z,15.6
2017-12-12T00:29:51.716Z,15.58
2017-12-12T00:31:01.518Z,15.68
2017-12-12T00:32:11.674Z,15.6
2017-12-12T00:33:21.216Z,15.67
2017-12-12T00:34:31.386Z,15.63
2017-12-12T00:35:41.236Z,15.63
2017-12-12T00:36:51.065Z,15.67
2017-12-12T00:38:00.865Z,15.7
2017-12-12T00:39:11.542Z,15.65
2017-12-12T00:40:22.514Z,15.67
2017-12-12T00:41:32.586Z,15.65
2017-12-12T00:42:42.452Z,15.65
2017-12-12T00:43:52.665Z,15.65
2017-12-12T00:45:03.220Z,15.67
2017-12-12T00:46:13.038Z,15.63
2017-12-12T00:47:24.399Z,15.67
2017-12-12T00:48:34.210Z,15.68
2017-12-12T00:49:44.852Z,15.74
2017-12-12T00:50:54.985Z,15.63
2017-12-12T00:52:05.115Z,15.63
2017-12-12T00:53:14.956Z,15.62
2017-12-12T00:54:24.855Z,15.62
2017-12-12T00:55:34.658Z,15.73
2017-12-12T00:56:44.730Z,15.67
2017-12-12T00:57:54.807Z,15.77
2017-12-12T00:59:04.644Z,15.67
2017-12-12T01:00:14.487Z,15.6
2017-12-12T01:01:24.293Z,15.67
2017-12-12T01:02:34.119Z,15.67
2017-12-12T01:03:44.198Z,15.65
2017-12-12T01:04:54.281Z,15.58
2017-12-12T01:06:04.085Z,15.63
2017-12-12T01:07:14.001Z,15.6
2017-12-12T01:08:24.117Z,15.55
2017-12-12T01:09:34.249Z,15.62
2017-12-12T01:10:44.310Z,15.59
2017-12-12T01:11:54.420Z,15.59
2017-12-12T01:13:04.461Z,15.62
2017-12-12T01:14:13.986Z,15.56
2017-12-12T01:15:24.058Z,15.49
2017-12-12T01:16:33.597Z,15.58
2017-12-12T01:17:43.141Z,15.58
2017-12-12T01:18:52.953Z,15.44
2017-12-12T01:20:03.099Z,15.56
2017-12-12T01:21:13.165Z,15.58
2017-12-12T01:22:22.697Z,15.47
2017-12-12T01:23:32.829Z,15.56
2017-12-12T01:24:42.887Z,15.62
2017-12-12T01:25:52.943Z,15.52
2017-12-12T01:27:03.011Z,15.59
2017-12-12T01:28:12.812Z,15.58
2017-12-12T01:29:22.885Z,15.56
2017-12-12T01:30:32.930Z,15.62
2017-12-12T01:31:42.756Z,15.53
2017-12-12T01:32:52.815Z,15.62
2017-12-12T01:34:02.876Z,15.63
2017-12-12T01:35:12.945Z,15.68
2017-12-12T01:36:23.003Z,15.67
2017-12-12T01:37:32.810Z,15.65
2017-12-12T01:38:42.612Z,15.68
2017-12-12T01:39:52.406Z,15.71
2017-12-12T01:41:01.977Z,15.74
2017-12-12T01:42:11.809Z,15.75
2017-12-12T01:43:21.884Z,15.74
2017-12-12T01:44:31.427Z,15.75
2017-12-12T01:45:41.225Z,15.77
2017-12-12T01:46:51.015Z,15.84
2017-12-12T01:48:01.088Z,15.86
2017-12-12T01:49:11.152Z,15.81
2017-12-12T01:50:21.204Z,15.91
2017-12-12T01:51:31.278Z,15.91
2017-12-12T01:52:41.323Z,15.83
2017-12-12T01:53:51.136Z,15.93
2017-12-12T01:55:01.207Z,15.81
2017-12-12T01:56:11.253Z,15.92
2017-12-12T01:57:21.301Z,15.88
2017-12-12T01:58:31.087Z,15.91
2017-12-12T01:59:41.143Z,15.93
2017-12-12T02:00:51.211Z,15.96
2017-12-12T02:02:01.014Z,15.93
2017-12-12T02:03:10.813Z,15.88
2017-12-12T02:04:20.872Z,15.98
2017-12-12T02:05:30.677Z,15.98
2017-12-12T02:06:40.748Z,15.98
2017-12-12T02:07:50.821Z,15.92
2017-12-12T02:09:00.617Z,15.92
2017-12-12T02:10:10.683Z,15.96
2017-12-12T02:11:20.536Z,16.1
2017-12-12T02:12:31.907Z,15.96
2017-12-12T02:13:41.956Z,15.98
2017-12-12T02:14:51.941Z,15.98
2017-12-12T02:16:02.017Z,16.08
2017-12-12T02:17:12.069Z,16.16
2017-12-12T02:18:21.872Z,16.11
2017-12-12T02:19:31.924Z,16.13
2017-12-12T02:20:41.997Z,16.17
2017-12-12T02:21:51.794Z,16.22
2017-12-12T02:23:01.637Z,16.25
2017-12-12T02:24:11.163Z,16.32
2017-12-12T02:25:21.221Z,16.37
2017-12-12T02:26:31.028Z,16.36
2017-12-12T02:27:41.101Z,16.36
2017-12-12T02:28:51.222Z,16.44
2017-12-12T02:30:00.756Z,16.4
2017-12-12T02:31:10.286Z,16.34
2017-12-12T02:32:20.083Z,16.36
2017-12-12T02:33:29.948Z,16.44
2017-12-12T02:34:40.213Z,16.34
2017-12-12T02:35:49.813Z,16.34
2017-12-12T02:36:59.599Z,16.3
2017-12-12T02:38:09.401Z,16.3
2017-12-12T02:39:19.208Z,16.25
2017-12-12T02:40:29.279Z,16.27
2017-12-12T02:41:40.097Z,16.33
2017-12-12T02:42:49.902Z,16.27
2017-12-12T02:43:59.975Z,16.26
2017-12-12T02:45:10.096Z,16.29
2017-12-12T02:46:20.162Z,16.21
2017-12-12T02:47:29.690Z,16.14
2017-12-12T02:48:39.742Z,16.16
2017-12-12T02:49:49.555Z,16.16
2017-12-12T02:50:59.637Z,16.04
2017-12-12T02:52:12.143Z,15.98
2017-12-12T02:53:21.949Z,16.02
2017-12-12T02:54:32.024Z,15.98
2017-12-12T02:55:42.093Z,15.88
2017-12-12T02:56:52.155Z,15.81
2017-12-12T02:58:01.490Z,15.7
2017-12-12T02:59:11.548Z,15.67
2017-12-12T03:00:21.605Z,15.58
2017-12-12T03:01:31.656Z,15.59
2017-12-12T03:02:41.720Z,15.52
2017-12-12T03:34:13.377Z,12.47
2017-12-12T03:35:23.163Z,12.28
2017-12-12T03:36:33.039Z,12.22
2017-12-12T03:37:42.836Z,12.37
2017-12-12T03:38:53.115Z,12.34
2017-12-12T03:40:03.178Z,12.34
2017-12-12T03:41:12.715Z,12.4
2017-12-12T03:42:22.498Z,12.47
2017-12-12T03:43:32.285Z,12.56
2017-12-12T03:44:41.815Z,12.63
2017-12-12T03:45:51.803Z,12.77
2017-12-12T03:47:01.600Z,12.84
2017-12-12T03:48:11.661Z,13.02
2017-12-12T03:49:21.714Z,13.09
2017-12-12T03:50:31.774Z,13.2
2017-12-12T03:51:41.821Z,13.29
2017-12-12T03:52:51.600Z,13.5
2017-12-12T03:54:01.655Z,13.55
2017-12-12T03:55:11.456Z,13.5
2017-12-12T03:56:21.503Z,13.62
2017-12-12T03:57:31.290Z,13.62
2017-12-12T03:58:41.351Z,13.55
2017-12-12T03:59:51.461Z,13.65
2017-12-12T04:01:01.525Z,13.66
2017-12-12T04:02:12.931Z,13.75
2017-12-12T04:03:22.999Z,13.7
2017-12-12T04:04:32.802Z,13.75
2017-12-12T04:05:42.626Z,13.76
2017-12-12T04:06:52.417Z,13.76
2017-12-12T04:08:02.476Z,13.76
2017-12-12T04:09:12.280Z,13.83
2017-12-12T04:10:21.589Z,13.84
2017-12-12T04:11:31.648Z,13.76
2017-12-12T04:12:41.706Z,13.76
2017-12-12T04:13:51.751Z,13.81
2017-12-12T04:15:01.830Z,13.75
2017-12-12T04:16:11.884Z,13.79
2017-12-12T04:17:21.935Z,13.83
2017-12-12T04:18:31.742Z,13.79
2017-12-12T04:19:41.806Z,13.7
2017-12-12T04:20:51.337Z,13.78
2017-12-12T04:22:00.874Z,13.75
2017-12-12T04:23:10.924Z,13.75
2017-12-12T04:24:20.717Z,13.63
2017-12-12T04:25:30.781Z,13.68
2017-12-12T04:26:40.569Z,13.7
2017-12-12T04:27:50.360Z,13.65
2017-12-12T04:29:00.486Z,13.63
2017-12-12T04:30:10.560Z,13.63
2017-12-12T04:31:20.621Z,13.58
2017-12-12T04:32:30.434Z,13.65
2017-12-12T04:33:40.480Z,13.65
2017-12-12T04:34:49.489Z,13.63
2017-12-12T04:35:59.562Z,13.6
2017-12-12T04:37:09.624Z,13.62
2017-12-12T04:38:19.161Z,13.6
2017-12-12T04:39:28.963Z,13.63
2017-12-12T04:40:39.076Z,13.51
2017-12-12T04:41:48.881Z,13.55
2017-12-12T04:42:58.669Z,13.55
2017-12-12T04:44:08.790Z,13.57
2017-12-12T04:45:18.588Z,13.53
2017-12-12T04:46:28.420Z,13.44
2017-12-12T04:47:38.490Z,13.48
2017-12-12T04:48:48.293Z,13.32
2017-12-12T04:49:58.094Z,13.45
2017-12-12T04:51:08.216Z,13.32
2017-12-12T04:52:18.282Z,13.27
2017-12-12T04:53:28.350Z,13.24
2017-12-12T04:54:37.657Z,13.1
2017-12-12T04:55:47.719Z,13.1
2017-12-12T04:56:57.526Z,12.94
2017-12-12T04:58:07.637Z,12.98
2017-12-12T04:59:17.687Z,12.92
2017-12-12T05:00:27.479Z,12.91
2017-12-12T05:01:37.558Z,12.78
2017-12-12T05:02:47.618Z,12.78
2017-12-12T05:03:57.733Z,12.76
2017-12-12T05:05:07.552Z,12.73
2017-12-12T05:06:17.090Z,12.59
2017-12-12T05:07:26.871Z,12.53
2017-12-12T05:08:36.932Z,12.61
2017-12-12T05:09:46.735Z,12.51
2017-12-12T05:10:56.816Z,12.48
2017-12-12T05:12:06.613Z,12.43
2017-12-12T05:13:16.656Z,12.38
2017-12-12T05:14:26.707Z,12.34
2017-12-12T05:15:36.764Z,12.25
2017-12-12T05:16:46.576Z,12.18
2017-12-12T05:17:56.631Z,12.15
2017-12-12T05:19:06.437Z,12.03
2017-12-12T05:20:16.482Z,11.89
2017-12-12T05:21:26.016Z,11.89
2017-12-12T05:22:35.531Z,11.75
2017-12-12T05:23:45.360Z,11.78
2017-12-12T05:24:55.425Z,11.67
2017-12-12T05:26:05.491Z,11.61
2017-12-12T05:27:15.601Z,11.48
2017-12-12T05:28:25.734Z,11.52
2017-12-12T05:29:35.520Z,11.42
2017-12-12T05:30:45.315Z,11.42
2017-12-12T05:31:55.372Z,11.38
2017-12-12T05:33:05.434Z,11.39
2017-12-12T05:34:15.505Z,11.33
2017-12-12T05:35:25.564Z,11.41
2017-12-12T05:36:35.618Z,11.38
2017-12-12T05:37:45.672Z,11.3
2017-12-12T05:38:55.481Z,11.26
2017-12-12T05:40:05.557Z,11.31
2017-12-12T05:41:15.619Z,11.16
2017-12-12T05:42:25.678Z,11.31
2017-12-12T05:43:35.726Z,11.23
2017-12-12T05:44:45.256Z,11.23
2017-12-12T05:45:55.306Z,11.24
2017-12-12T05:47:05.355Z,11.24
2017-12-12T05:48:15.142Z,11.24
2017-12-12T05:49:24.940Z,11.18
2017-12-12T05:50:34.833Z,11.27
2017-12-12T05:51:44.637Z,11.31
2017-12-12T05:52:54.696Z,11.3
2017-12-12T05:54:04.483Z,11.16
2017-12-12T05:55:14.546Z,11.2
2017-12-12T05:56:24.591Z,11.27
2017-12-12T05:57:34.646Z,11.27
2017-12-12T05:58:44.718Z,11.24
2017-12-12T05:59:54.520Z,11.16
2017-12-12T06:01:04.586Z,11.16
2017-12-12T06:02:14.433Z,11.23
2017-12-12T06:03:24.485Z,11.21
2017-12-12T06:04:34.283Z,11.2
2017-12-12T06:05:44.089Z,11.15
2017-12-12T06:06:54.140Z,11.15
2017-12-12T06:08:03.401Z,11.06
2017-12-12T06:09:13.208Z,11.18
2017-12-12T06:10:23.266Z,11.09
2017-12-12T06:11:33.321Z,11.16
2017-12-12T06:12:43.405Z,11.15
2017-12-12T06:13:52.983Z,11.15
2017-12-12T06:15:03.035Z,11.21
2017-12-12T06:16:13.075Z,11.21
2017-12-12T06:17:22.880Z,11.16
2017-12-12T06:18:32.666Z,11.2
2017-12-12T06:19:42.764Z,11.15
2017-12-12T06:20:52.841Z,11.2
2017-12-12T06:22:02.648Z,11.13
2017-12-12T06:23:12.442Z,11.16
2017-12-12T06:24:22.230Z,11.28
2017-12-12T06:25:32.035Z,11.16
2017-12-12T06:26:42.125Z,11.16
2017-12-12T06:27:52.186Z,11.24
2017-12-12T06:29:02.233Z,11.21
2017-12-12T06:30:12.286Z,11.2
2017-12-12T06:31:22.339Z,11.18
2017-12-12T06:32:32.406Z,11.23
2017-12-12T06:33:42.460Z,11.23
2017-12-12T06:34:52.266Z,11.23
2017-12-12T06:36:02.339Z,11.18
2017-12-12T06:37:12.399Z,11.28
2017-12-12T06:38:21.933Z,11.26
2017-12-12T06:39:32.006Z,11.24
2017-12-12T06:40:41.541Z,11.28
2017-12-12T06:41:51.608Z,11.18
2017-12-12T06:43:01.711Z,11.24
2017-12-12T06:44:11.232Z,11.23
2017-12-12T06:45:21.297Z,11.23
2017-12-12T06:46:31.104Z,11.31
2017-12-12T06:47:41.158Z,11.38
2017-12-12T06:48:50.945Z,11.27
2017-12-12T06:50:01.007Z,11.24
2017-12-12T06:51:11.081Z,11.34
2017-12-12T06:52:20.886Z,11.31
2017-12-12T06:53:30.666Z,11.34
2017-12-12T06:54:40.454Z,11.3
2017-12-12T06:55:50.527Z,11.34
2017-12-12T06:57:00.061Z,11.27
2017-12-12T06:58:10.109Z,11.26
2017-12-12T06:59:19.631Z,11.24
2017-12-12T07:00:29.183Z,11.33
2017-12-12T07:01:39.242Z,11.26
2017-12-12T07:02:49.339Z,11.31
2017-12-12T07:03:59.140Z,11.33
2017-12-12T07:05:10.069Z,11.28
2017-12-12T07:06:20.139Z,11.33
2017-12-12T07:07:31.237Z,11.3
2017-12-12T07:08:42.132Z,11.3
2017-12-12T07:09:52.185Z,11.33
2017-12-12T07:11:02.232Z,11.34
2017-12-12T07:12:12.029Z,11.41
2017-12-12T07:13:21.568Z,11.34
2017-12-12T07:14:31.100Z,11.39
2017-12-12T07:15:41.176Z,11.41
2017-12-12T07:16:51.237Z,11.38
2017-12-12T07:18:01.296Z,11.39
2017-12-12T07:19:11.386Z,11.41
2017-12-12T07:20:21.176Z,11.42
2017-12-12T07:21:30.970Z,11.39
2017-12-12T07:22:40.500Z,11.45
2017-12-12T07:23:50.304Z,11.41
2017-12-12T07:25:00.408Z,11.35
2017-12-12T07:26:10.208Z,11.3
2017-12-12T07:27:20.254Z,11.33
2017-12-12T07:28:30.053Z,11.26
2017-12-12T07:29:39.855Z,11.26
2017-12-12T07:30:49.910Z,11.31
2017-12-12T07:31:59.719Z,11.34
2017-12-12T07:33:09.291Z,11.38
2017-12-12T07:34:19.351Z,11.3
2017-12-12T07:35:29.147Z,11.39
2017-12-12T07:36:39.382Z,11.35
2017-12-12T07:37:49.196Z,11.42
2017-12-12T07:38:59.319Z,11.33
2017-12-12T07:40:09.126Z,11.41
2017-12-12T07:41:19.278Z,11.41
2017-12-12T07:42:29.083Z,11.41
2017-12-12T07:43:39.126Z,11.31
2017-12-12T07:44:49.178Z,11.35
2017-12-12T07:45:58.761Z,11.35
2017-12-12T07:47:08.828Z,11.38
2017-12-12T07:48:18.619Z,11.34
2017-12-12T07:49:28.672Z,11.38
2017-12-12T07:50:38.467Z,11.38
2017-12-12T07:51:48.333Z,11.43
2017-12-12T07:52:58.130Z,11.46
2017-12-12T07:54:07.942Z,11.46
2017-12-12T07:55:17.733Z,11.51
2017-12-12T07:56:27.554Z,11.45
2017-12-12T07:57:37.366Z,11.53
2017-12-12T07:58:46.901Z,11.59
2017-12-12T07:59:57.028Z,11.49
2017-12-12T08:01:06.833Z,11.49
2017-12-12T08:02:16.396Z,11.57
2017-12-12T08:03:26.220Z,11.56
2017-12-12T08:04:35.743Z,11.6
2017-12-12T08:05:47.129Z,11.57
2017-12-12T08:06:57.200Z,11.66
2017-12-12T08:08:06.746Z,11.67
2017-12-12T08:09:16.869Z,11.7
2017-12-12T08:10:26.677Z,11.68
2017-12-12T08:11:36.829Z,11.68
2017-12-12T08:12:46.641Z,11.79
2017-12-12T08:13:56.184Z,11.78
2017-12-12T08:15:05.776Z,11.76
2017-12-12T08:16:15.870Z,11.82
2017-12-12T08:17:25.663Z,11.82
2017-12-12T08:18:35.703Z,11.84
2017-12-12T08:19:45.594Z,11.84
2017-12-12T08:20:55.722Z,11.84
2017-12-12T08:22:05.780Z,11.85
2017-12-12T08:23:16.400Z,11.86
2017-12-12T08:24:26.456Z,11.91
2017-12-12T08:25:36.495Z,11.94
2017-12-12T08:26:46.297Z,12
2017-12-12T08:27:56.345Z,11.89
2017-12-12T08:29:06.198Z,11.95
2017-12-12T08:30:16.003Z,11.97
2017-12-12T08:31:26.058Z,11.98
2017-12-12T08:32:36.119Z,12.07
2017-12-12T08:33:45.921Z,12.05
2017-12-12T08:34:56.014Z,12.07
2017-12-12T08:36:06.084Z,12.07
2017-12-12T08:37:16.166Z,12.08
2017-12-12T08:38:26.020Z,12.18
2017-12-12T08:39:36.094Z,12.23
2017-12-12T08:40:46.169Z,12.2
2017-12-12T08:41:56.049Z,12.2
2017-12-12T08:43:06.107Z,12.23
2017-12-12T08:44:16.225Z,12.2
2017-12-12T08:45:26.033Z,12.31
2017-12-12T08:46:41.332Z,12.37
2017-12-12T08:48:00.099Z,12.23
2017-12-12T08:49:11.729Z,12.33
2017-12-12T08:50:21.517Z,12.36
2017-12-12T08:51:31.573Z,12.29
2017-12-12T08:52:41.651Z,12.4
2017-12-12T08:53:51.707Z,12.31
2017-12-12T08:55:01.538Z,12.33
2017-12-12T08:56:11.619Z,12.29
2017-12-12T08:57:21.894Z,12.34
2017-12-12T08:58:31.780Z,12.33
2017-12-12T08:59:41.585Z,12.36
2017-12-12T09:00:51.658Z,12.44
2017-12-12T09:02:01.219Z,12.38
2017-12-12T09:03:11.017Z,12.43
2017-12-12T09:04:21.151Z,12.44
2017-12-12T09:05:30.973Z,12.44
2017-12-12T09:06:41.024Z,12.43
2017-12-12T09:07:50.574Z,12.47
2017-12-12T09:09:00.639Z,12.41
2017-12-12T09:10:10.706Z,12.47
2017-12-12T09:11:20.759Z,12.48
2017-12-12T09:12:30.591Z,12.53
2017-12-12T09:13:40.111Z,12.51
2017-12-12T09:14:50.260Z,12.51
2017-12-12T09:16:01.189Z,12.53
2017-12-12T09:17:11.293Z,12.59
2017-12-12T09:18:21.086Z,12.56
2017-12-12T09:19:31.177Z,12.59
2017-12-12T09:20:40.708Z,12.59
2017-12-12T09:21:51.017Z,12.62
2017-12-12T09:23:01.090Z,12.58
2017-12-12T09:24:11.139Z,12.66
2017-12-12T09:25:20.936Z,12.76
2017-12-12T09:26:31.001Z,12.89
2017-12-12T09:27:40.822Z,12.88
2017-12-12T09:28:52.208Z,12.89
2017-12-12T09:30:01.751Z,12.91
2017-12-12T09:31:11.571Z,13.01
2017-12-12T09:32:21.642Z,13.02
2017-12-12T09:33:31.712Z,13.06
2017-12-12T09:34:41.792Z,13.09
2017-12-12T09:35:51.868Z,13.13
2017-12-12T09:37:02.033Z,13.21
2017-12-12T09:38:12.339Z,13.24
2017-12-12T09:39:22.167Z,13.28
2017-12-12T09:40:32.221Z,13.37
2017-12-12T09:41:42.011Z,13.35
2017-12-12T09:42:52.057Z,13.44
2017-12-12T09:44:02.126Z,13.5
2017-12-12T09:45:12.260Z,13.58
2017-12-12T09:46:22.382Z,13.53
2017-12-12T09:47:32.459Z,13.6
2017-12-12T09:48:42.512Z,13.69
2017-12-12T09:49:52.319Z,13.75
2017-12-12T09:51:02.406Z,13.73
2017-12-12T09:52:12.558Z,13.84
2017-12-12T09:53:22.674Z,13.95
2017-12-12T09:54:32.516Z,13.99
2017-12-12T09:55:42.345Z,13.99
2017-12-12T09:56:52.467Z,14.09
2017-12-12T09:58:02.623Z,14.2
2017-12-12T09:59:12.720Z,14.33
2017-12-12T10:00:22.542Z,14.33
2017-12-12T10:01:32.616Z,14.46
2017-12-12T10:02:42.684Z,14.6
2017-12-12T10:03:52.538Z,14.7
2017-12-12T10:05:02.608Z,14.71
2017-12-12T10:06:12.671Z,14.89
2017-12-12T10:07:22.741Z,14.93
2017-12-12T10:08:32.870Z,14.98
2017-12-12T10:09:43.015Z,14.95
2017-12-12T10:10:52.813Z,14.98
2017-12-12T10:12:02.893Z,15.01
2017-12-12T10:13:12.433Z,15.04
2017-12-12T10:14:22.231Z,15.15
2017-12-12T10:15:32.080Z,15.1
2017-12-12T10:16:42.158Z,15.1
2017-12-12T10:17:51.953Z,15.16
2017-12-12T10:19:02.056Z,15.12
2017-12-12T10:20:12.161Z,15.15
2017-12-12T10:21:22.273Z,15.1
2017-12-12T10:22:32.089Z,15.04
2017-12-12T10:23:42.163Z,15
2017-12-12T10:24:51.972Z,14.9
2017-12-12T10:26:02.040Z,14.87
2017-12-12T10:27:12.116Z,14.89
2017-12-12T10:28:21.933Z,14.89
2017-12-12T10:29:32.013Z,14.9
2017-12-12T10:30:42.072Z,14.87
2017-12-12T10:31:51.899Z,14.9
2017-12-12T10:33:02.056Z,14.86
2017-12-12T10:34:12.691Z,14.94
2017-12-12T10:35:22.496Z,14.94
2017-12-12T10:36:32.569Z,15.05
2017-12-12T10:37:42.628Z,15.05
2017-12-12T10:38:52.455Z,14.98
2017-12-12T10:40:02.584Z,14.87
2017-12-12T10:41:12.379Z,14.89
2017-12-12T10:42:22.477Z,14.85
2017-12-12T10:43:32.559Z,14.79
2017-12-12T10:44:42.650Z,14.71
2017-12-12T10:45:52.712Z,14.7
2017-12-12T10:47:02.519Z,14.64
2017-12-12T10:48:12.328Z,14.61
2017-12-12T10:49:22.402Z,14.63
2017-12-12T10:50:32.223Z,14.48
2017-12-12T10:51:42.534Z,14.38
2017-12-12T10:52:52.337Z,14.42
2017-12-12T10:54:02.423Z,14.3
2017-12-12T10:55:12.511Z,14.31
2017-12-12T10:56:22.373Z,14.3
2017-12-12T10:57:32.192Z,14.44
2017-12-12T10:58:42.256Z,14.52
2017-12-12T10:59:52.066Z,14.49
2017-12-12T11:01:02.153Z,14.57
2017-12-12T11:02:12.233Z,14.57
2017-12-12T11:03:22.046Z,14.57
2017-12-12T11:04:32.118Z,14.59
2017-12-12T11:05:43.086Z,14.48
2017-12-12T11:06:52.882Z,14.52
2017-12-12T11:08:02.751Z,14.53
2017-12-12T11:09:12.821Z,14.49
2017-12-12T11:10:22.911Z,14.39
2017-12-12T11:11:32.969Z,14.33
2017-12-12T11:12:43.026Z,14.44
2017-12-12T11:13:53.101Z,14.31
2017-12-12T11:15:03.210Z,14.28
2017-12-12T11:16:13.026Z,14.23
2017-12-12T11:17:22.846Z,14.3
2017-12-12T11:18:32.671Z,14.28
2017-12-12T11:19:42.817Z,14.24
2017-12-12T11:20:52.658Z,14.21
2017-12-12T11:22:02.480Z,14.24
2017-12-12T11:23:12.572Z,14.27
2017-12-12T11:24:22.380Z,14.31
2017-12-12T11:25:32.488Z,14.3
2017-12-12T11:26:42.298Z,14.36
2017-12-12T11:27:52.367Z,14.39
2017-12-12T11:29:02.440Z,14.3
2017-12-12T11:30:12.526Z,14.42
2017-12-12T11:31:22.143Z,14.46
2017-12-12T11:32:31.972Z,14.51
2017-12-12T11:33:41.769Z,14.52
2017-12-12T11:34:51.860Z,14.48
2017-12-12T11:36:01.942Z,14.49
2017-12-12T11:37:12.030Z,14.46
2017-12-12T11:38:22.106Z,14.48
2017-12-12T11:39:32.171Z,14.51
2017-12-12T11:40:42.016Z,14.52
2017-12-12T11:41:52.110Z,14.49
2017-12-12T11:43:02.253Z,14.49
2017-12-12T11:44:12.042Z,14.48
2017-12-12T11:45:22.101Z,14.46
2017-12-12T11:46:32.182Z,14.44
2017-12-12T11:47:42.009Z,14.28
2017-12-12T11:48:51.828Z,14.26
2017-12-12T11:50:02.622Z,14.21
2017-12-12T11:51:12.945Z,14.16
2017-12-12T11:52:22.781Z,14.15
2017-12-12T11:53:32.854Z,14.15
2017-12-12T11:54:42.679Z,14.24
2017-12-12T11:55:52.475Z,14.19
2017-12-12T11:57:02.564Z,14.13
2017-12-12T11:58:12.361Z,14.09
2017-12-12T11:59:22.166Z,14.06
2017-12-12T12:00:32.279Z,13.94
2017-12-12T12:01:42.338Z,14.09
2017-12-12T12:02:52.431Z,13.99
2017-12-12T12:04:02.236Z,14.12
2017-12-12T12:05:12.310Z,14.15
2017-12-12T12:06:21.600Z,14.15
2017-12-12T12:07:31.144Z,14.19
2017-12-12T12:08:40.685Z,14.27
2017-12-12T12:09:50.483Z,14.21
2017-12-12T12:11:00.280Z,14.19
2017-12-12T12:12:10.086Z,14.08
2017-12-12T12:13:19.898Z,14.09
2017-12-12T12:14:29.711Z,14.11
2017-12-12T12:15:39.518Z,14.08
2017-12-12T12:16:49.608Z,14.08
2017-12-12T12:17:59.412Z,14.05
2017-12-12T12:19:09.504Z,13.97
2017-12-12T12:20:19.584Z,14.11
2017-12-12T12:21:29.663Z,14.06
2017-12-12T12:22:39.802Z,14.08
2017-12-12T12:23:49.934Z,14.01
2017-12-12T12:24:59.998Z,13.94
2017-12-12T12:26:10.071Z,13.94
2017-12-12T12:27:20.195Z,14.01
2017-12-12T12:28:30.312Z,14.01
2017-12-12T12:29:40.373Z,14.02
2017-12-12T12:30:50.472Z,14.06
2017-12-12T12:32:00.550Z,14.11
2017-12-12T12:33:10.356Z,14.23
2017-12-12T12:34:20.169Z,14.11
2017-12-12T12:35:29.964Z,14.06
2017-12-12T12:36:40.014Z,13.91
2017-12-12T12:37:49.801Z,13.83
2017-12-12T12:38:59.861Z,13.87
2017-12-12T12:40:09.458Z,13.84
2017-12-12T12:41:19.539Z,13.68
2017-12-12T12:42:29.609Z,13.57
2017-12-12T12:43:39.414Z,13.7
2017-12-12T12:44:49.236Z,13.68
2017-12-12T12:45:59.356Z,13.65
2017-12-12T12:47:09.438Z,13.65
2017-12-12T12:48:19.495Z,13.58
2017-12-12T12:49:29.569Z,13.63
2017-12-12T12:50:40.563Z,13.68
2017-12-12T12:51:50.702Z,13.55
2017-12-12T12:53:00.769Z,13.66
2017-12-12T12:54:10.592Z,13.6
2017-12-12T12:55:20.654Z,13.55
2017-12-12T12:56:30.504Z,13.62
2017-12-12T12:57:39.996Z,13.65
2017-12-12T12:58:49.811Z,13.58
2017-12-12T12:59:59.611Z,13.57
2017-12-12T13:01:09.691Z,13.57
2017-12-12T13:02:19.242Z,13.7
2017-12-12T13:03:28.584Z,13.66
2017-12-12T13:04:38.654Z,13.66
2017-12-12T13:05:48.714Z,13.63
2017-12-12T13:06:58.764Z,13.68
2017-12-12T13:08:08.841Z,13.53
2017-12-12T13:09:18.977Z,13.42
2017-12-12T13:10:29.065Z,13.36
2017-12-12T13:11:39.144Z,13.35
2017-12-12T13:12:49.231Z,13.48
2017-12-12T13:13:59.036Z,13.45
2017-12-12T13:15:09.110Z,13.48
2017-12-12T13:16:18.927Z,13.57
2017-12-12T13:17:28.998Z,13.55
2017-12-12T13:18:39.037Z,13.68
2017-12-12T13:19:48.318Z,13.62
2017-12-12T13:20:58.416Z,13.54
2017-12-12T13:22:08.206Z,13.53
2017-12-12T13:23:18.009Z,13.39
2017-12-12T13:24:27.829Z,13.32
2017-12-12T13:25:37.404Z,13.24
2017-12-12T13:26:47.483Z,13.17
2017-12-12T13:27:57.299Z,13.16
2017-12-12T13:29:07.374Z,13.14
2017-12-12T13:30:17.453Z,13.1
2017-12-12T13:31:27.260Z,13.03
2017-12-12T13:32:37.427Z,12.91
2017-12-12T13:33:47.494Z,12.77
2017-12-12T13:34:57.272Z,12.76
2017-12-12T13:36:07.373Z,12.63
2017-12-12T13:37:17.456Z,12.48
2017-12-12T13:38:27.521Z,12.48
2017-12-12T13:39:37.583Z,12.34
2017-12-12T13:40:47.649Z,12.16
2017-12-12T13:41:57.714Z,12.11
2017-12-12T13:43:07.534Z,12.1
2017-12-12T13:44:17.364Z,11.91
2017-12-12T13:45:27.433Z,11.95
2017-12-12T13:46:36.974Z,11.89
2017-12-12T13:47:46.809Z,11.89
2017-12-12T13:48:56.870Z,11.91
2017-12-12T13:50:08.049Z,11.94
2017-12-12T13:51:18.131Z,11.86
2017-12-12T13:52:28.202Z,11.84
2017-12-12T13:53:38.008Z,11.81
2017-12-12T13:54:47.830Z,11.81
2017-12-12T13:55:57.701Z,11.75
2017-12-12T13:57:08.346Z,11.82
2017-12-12T13:58:18.424Z,11.67
2017-12-12T13:59:28.540Z,11.64
2017-12-12T14:00:38.331Z,11.67
2017-12-12T14:01:48.448Z,11.64
2017-12-12T14:02:58.032Z,11.67
2017-12-12T14:04:08.087Z,11.68
2017-12-12T14:05:17.877Z,11.63
2017-12-12T14:06:27.150Z,11.63
2017-12-12T14:07:37.058Z,11.6
2017-12-12T14:08:47.133Z,11.57
2017-12-12T14:09:57.190Z,11.48
2017-12-12T14:11:06.995Z,11.46
2017-12-12T14:12:17.179Z,11.38
2017-12-12T14:13:27.288Z,11.34
2017-12-12T14:14:37.358Z,11.35
2017-12-12T14:15:47.428Z,11.38
2017-12-12T14:16:56.973Z,11.3
2017-12-12T14:18:07.057Z,11.27
2017-12-12T14:19:16.887Z,11.21
2017-12-12T14:20:27.280Z,11.2
2017-12-12T14:21:37.375Z,11.1
2017-12-12T14:22:46.907Z,11.1
2017-12-12T14:23:56.427Z,11.12
2017-12-12T14:25:06.261Z,11.06
2017-12-12T14:26:15.878Z,11.08
2017-12-12T14:27:25.686Z,11.08
2017-12-12T14:28:35.755Z,11.06
2017-12-12T14:29:45.832Z,10.92
2017-12-12T14:30:56.326Z,10.88
2017-12-12T14:32:07.519Z,10.91
2017-12-12T14:33:17.573Z,10.79
2017-12-12T14:34:27.423Z,10.73
2017-12-12T14:35:37.730Z,10.76
2017-12-12T14:36:48.310Z,10.79
2017-12-12T14:37:58.118Z,10.8
2017-12-12T14:39:08.206Z,10.75
2017-12-12T14:40:17.998Z,10.76
2017-12-12T14:41:28.075Z,10.91
2017-12-12T14:42:38.216Z,10.87
2017-12-12T14:43:48.023Z,10.79
2017-12-12T14:44:57.830Z,10.87
2017-12-12T14:46:07.634Z,10.87
2017-12-12T14:47:17.699Z,10.83
2017-12-12T14:48:27.502Z,10.7
2017-12-12T14:49:37.330Z,10.59
2017-12-12T14:50:47.197Z,10.66
2017-12-12T14:51:57.261Z,10.65
2017-12-12T14:53:07.322Z,10.47
2017-12-12T14:54:17.399Z,10.52
2017-12-12T14:55:27.201Z,10.57
2017-12-12T14:56:37.329Z,10.47
2017-12-12T14:57:47.503Z,10.46
2017-12-12T14:58:57.561Z,10.55
2017-12-12T15:00:07.483Z,10.42
2017-12-12T15:01:17.545Z,10.46
2017-12-12T15:02:27.342Z,10.44
2017-12-12T15:03:36.879Z,10.41
2017-12-12T15:04:46.687Z,10.47
2017-12-12T15:05:56.738Z,10.44
2017-12-12T15:07:06.841Z,10.35
2017-12-12T15:08:16.987Z,10.38
2017-12-12T15:09:27.055Z,10.35
2017-12-12T15:10:37.126Z,10.36
2017-12-12T15:11:47.010Z,10.35
2017-12-12T15:12:57.104Z,10.32
2017-12-12T15:14:07.190Z,10.32
2017-12-12T15:15:18.292Z,10.31
2017-12-12T15:16:28.088Z,10.29
2017-12-12T15:17:38.157Z,10.28
2017-12-12T15:18:48.225Z,10.31
2017-12-12T15:19:58.305Z,10.28
2017-12-12T15:21:09.712Z,10.29
2017-12-12T15:22:19.503Z,10.31
2017-12-12T15:23:29.684Z,10.32
2017-12-12T15:24:39.499Z,10.29
2017-12-12T15:25:49.077Z,10.28
2017-12-12T15:26:59.141Z,10.26
2017-12-12T15:28:09.234Z,10.18
2017-12-12T15:29:19.037Z,10.21
2017-12-12T15:30:28.602Z,10.18
2017-12-12T15:31:38.670Z,10.2
2017-12-12T15:32:48.454Z,10.25
2017-12-12T15:33:58.521Z,10.14
2017-12-12T15:35:08.720Z,10.14